Manahawkin, New Jersey
Current Conditions -  °F | °C
As of 11:55 PM on Sunday 21 Dec 2014 (Local Time) from KMJX Reporting Station
Overcast Overcast  
Wind Chill: 30°   Ceiling: 2500
Heat Index: 34°   Visibility: 10mi
Dew Point: 27°   Wind: 5mph
Humidity: 75%   Direction: 300°WNW
Pressure: 30.34"   Gusts: NA
Location:  39.7°N, 74.25°W
Report Text: KMJX 220455Z AUTO 30004KT 10SM OVC025 01/M03 A3034 RMK AO1
Loading
Personal Weather Stations






























Interactive Weather Map New forecast layout! Learn more

10-Day Weather Forecast

Advertisements
Track Severe Weather on mobile